createdAt,value
2018-05-09T00:00:58.228Z,90.4
2018-05-09T00:01:58.954Z,90.0
2018-05-09T00:02:59.952Z,89.9
2018-05-09T00:04:00.764Z,89.9
2018-05-09T00:05:01.486Z,89.8
2018-05-09T00:06:02.201Z,90.0
2018-05-09T00:07:02.918Z,90.4
2018-05-09T00:08:03.641Z,90.2
2018-05-09T00:09:04.367Z,90.5
2018-05-09T00:10:05.082Z,89.7
2018-05-09T00:11:05.792Z,90.4
2018-05-09T00:12:06.562Z,90.6
2018-05-09T00:13:07.228Z,90.6
2018-05-09T00:14:07.956Z,90.0
2018-05-09T00:15:08.680Z,90.3
2018-05-09T00:16:09.413Z,90.3
2018-05-09T00:17:10.140Z,89.8
2018-05-09T00:18:10.860Z,90.4
2018-05-09T00:19:11.640Z,90.0
2018-05-09T00:20:12.348Z,90.1
2018-05-09T00:21:13.064Z,90.5
2018-05-09T00:22:13.788Z,90.7
2018-05-09T00:23:14.503Z,90.4
2018-05-09T00:24:15.239Z,89.9
2018-05-09T00:25:15.964Z,90.7
2018-05-09T00:26:16.689Z,90.4
2018-05-09T00:27:17.406Z,90.4
2018-05-09T00:28:18.128Z,90.7
2018-05-09T00:29:18.853Z,90.4
2018-05-09T00:30:19.581Z,90.3
2018-05-09T00:31:20.309Z,90.5
2018-05-09T00:32:21.293Z,90.6
2018-05-09T00:33:22.022Z,90.3
2018-05-09T00:34:22.742Z,90.5
2018-05-09T00:35:23.455Z,90.1
2018-05-09T00:36:24.180Z,90.5
2018-05-09T00:37:24.904Z,90.5
2018-05-09T00:38:25.616Z,90.1
2018-05-09T00:39:26.326Z,90.0
2018-05-09T00:40:27.055Z,90.6
2018-05-09T00:41:27.772Z,90.4
2018-05-09T00:42:28.507Z,90.4
2018-05-09T00:43:29.337Z,91.1
2018-05-09T00:44:30.109Z,90.5
2018-05-09T00:45:31.016Z,90.2
2018-05-09T00:46:31.796Z,90.0
2018-05-09T00:47:32.677Z,90.9
2018-05-09T00:48:33.437Z,90.7
2018-05-09T00:49:34.309Z,90.8
2018-05-09T00:50:35.171Z,90.4
2018-05-09T00:51:35.922Z,90.0
2018-05-09T00:52:36.768Z,90.5
2018-05-09T00:53:37.532Z,90.5
2018-05-09T00:54:38.265Z,90.5
2018-05-09T00:55:39.426Z,90.6
2018-05-09T00:56:40.268Z,90.2
2018-05-09T00:57:40.980Z,90.5
2018-05-09T00:58:41.722Z,91.0
2018-05-09T00:59:42.440Z,90.6
2018-05-09T01:00:43.265Z,90.6
2018-05-09T01:01:43.999Z,89.6
2018-05-09T01:02:44.706Z,90.6
2018-05-09T01:03:45.431Z,90.6
2018-05-09T01:04:46.136Z,90.7
2018-05-09T01:05:46.961Z,90.6
2018-05-09T01:06:47.680Z,90.1
2018-05-09T01:07:48.405Z,91.3
2018-05-09T01:08:49.131Z,90.4
2018-05-09T01:09:50.111Z,90.8
2018-05-09T01:10:50.830Z,90.6
2018-05-09T01:11:51.568Z,90.4
2018-05-09T01:12:52.283Z,89.7
2018-05-09T01:13:52.995Z,90.2
2018-05-09T01:14:53.714Z,90.4
2018-05-09T01:15:54.443Z,90.4
2018-05-09T01:16:55.161Z,90.5
2018-05-09T01:17:55.903Z,90.1
2018-05-09T01:18:56.629Z,90.7
2018-05-09T01:19:57.340Z,90.2
2018-05-09T01:20:58.071Z,89.8
2018-05-09T01:21:58.776Z,90.1
2018-05-09T01:22:59.513Z,90.1
2018-05-09T01:24:00.288Z,89.9
2018-05-09T01:25:00.956Z,90.4
2018-05-09T01:26:02.037Z,90.2
2018-05-09T01:27:02.767Z,91.0
2018-05-09T01:28:03.483Z,90.2
2018-05-09T01:29:04.222Z,90.3
2018-05-09T01:30:04.934Z,90.2
2018-05-09T01:31:05.661Z,89.8
2018-05-09T01:32:06.393Z,90.2
2018-05-09T01:33:07.109Z,90.4
2018-05-09T01:34:07.839Z,90.7
2018-05-09T01:35:08.563Z,90.4
2018-05-09T01:36:09.285Z,90.6
2018-05-09T01:37:10.007Z,90.4
2018-05-09T01:38:10.831Z,90.4
2018-05-09T01:39:11.559Z,90.9
2018-05-09T01:40:12.280Z,90.2
2018-05-09T01:41:13.015Z,90.5
2018-05-09T01:42:13.746Z,90.3
2018-05-09T01:43:14.513Z,90.4
2018-05-09T01:44:15.250Z,90.2
2018-05-09T01:45:15.957Z,90.6
2018-05-09T01:46:16.688Z,90.6
2018-05-09T01:47:17.403Z,90.4
2018-05-09T01:48:18.137Z,90.3
2018-05-09T01:49:18.843Z,90.6
2018-05-09T01:50:19.567Z,90.5
2018-05-09T01:51:20.276Z,90.5
2018-05-09T01:52:21.002Z,90.6
2018-05-09T01:53:21.754Z,91.2
2018-05-09T01:54:22.466Z,90.4
2018-05-09T01:55:23.187Z,90.4
2018-05-09T01:56:24.754Z,90.3
2018-05-09T01:57:25.476Z,90.5
2018-05-09T01:58:26.196Z,90.3
2018-05-09T01:59:26.910Z,90.0
2018-05-09T02:00:27.693Z,89.8
2018-05-09T02:01:28.416Z,90.3
2018-05-09T02:02:29.598Z,90.0
2018-05-09T02:03:30.318Z,90.3
2018-05-09T02:04:31.046Z,90.8
2018-05-09T02:05:31.780Z,90.1
2018-05-09T02:06:32.499Z,90.1
2018-05-09T02:07:33.263Z,90.2
2018-05-09T02:08:33.996Z,90.0
2018-05-09T02:09:34.727Z,90.3
2018-05-09T02:10:35.435Z,90.1
2018-05-09T02:11:36.147Z,90.6
2018-05-09T02:12:36.880Z,90.4
2018-05-09T02:13:37.756Z,90.5
2018-05-09T02:14:38.476Z,90.4
2018-05-09T02:15:39.197Z,90.0
2018-05-09T02:16:39.923Z,90.0
2018-05-09T02:17:40.703Z,90.9
2018-05-09T02:18:41.742Z,90.8
2018-05-09T02:19:42.462Z,90.1
2018-05-09T02:20:43.187Z,90.6
2018-05-09T02:21:43.909Z,90.4
2018-05-09T02:22:44.628Z,90.7
2018-05-09T02:23:45.350Z,90.4
2018-05-09T02:24:46.243Z,90.8
2018-05-09T02:25:46.963Z,90.9
2018-05-09T02:26:47.694Z,90.6
2018-05-09T02:27:48.428Z,90.6
2018-05-09T02:28:49.146Z,90.3
2018-05-09T02:29:50.633Z,90.4
2018-05-09T02:30:51.360Z,90.4
2018-05-09T02:31:52.083Z,90.2
2018-05-09T02:32:52.802Z,90.4
2018-05-09T02:33:53.520Z,90.4
2018-05-09T02:34:54.341Z,90.3
2018-05-09T02:35:55.069Z,90.6
2018-05-09T02:36:55.783Z,90.2
2018-05-09T02:37:56.513Z,90.2
2018-05-09T02:38:57.228Z,90.2
2018-05-09T02:39:57.997Z,90.3
2018-05-09T02:40:58.720Z,90.1
2018-05-09T02:41:59.444Z,90.1
2018-05-09T02:43:00.172Z,90.0
2018-05-09T02:44:00.885Z,90.4
2018-05-09T02:45:01.956Z,90.2
2018-05-09T02:46:02.692Z,90.2
2018-05-09T02:47:03.407Z,90.4
2018-05-09T02:48:04.143Z,90.1
2018-05-09T02:49:04.855Z,90.5
2018-05-09T02:50:05.588Z,90.2
2018-05-09T02:51:06.313Z,90.4
2018-05-09T02:52:07.039Z,90.4
2018-05-09T02:53:07.769Z,90.6
2018-05-09T02:54:08.484Z,90.3
2018-05-09T02:55:09.221Z,90.1
2018-05-09T02:56:09.938Z,90.3
2018-05-09T02:57:10.666Z,90.3
2018-05-09T02:58:11.378Z,90.4
2018-05-09T02:59:12.107Z,90.1
2018-05-09T03:00:12.846Z,90.0
2018-05-09T03:01:13.539Z,90.4
2018-05-09T03:02:14.264Z,90.5
2018-05-09T03:03:15.163Z,90.2
2018-05-09T03:04:15.900Z,90.6
2018-05-09T03:05:16.758Z,90.2
2018-05-09T03:06:17.570Z,90.3
2018-05-09T03:07:18.309Z,90.4
2018-05-09T03:08:19.135Z,90.0
2018-05-09T03:09:19.912Z,90.3
2018-05-09T03:10:20.789Z,90.4
2018-05-09T03:11:21.564Z,90.3
2018-05-09T03:12:22.337Z,90.4
2018-05-09T03:13:23.154Z,90.0
2018-05-09T03:14:23.912Z,90.4
2018-05-09T03:15:24.790Z,90.4
2018-05-09T03:16:25.656Z,90.3
2018-05-09T03:17:26.432Z,90.4
2018-05-09T03:18:27.338Z,90.3
2018-05-09T03:19:28.289Z,90.3
2018-05-09T03:20:29.065Z,90.7
2018-05-09T03:21:29.732Z,90.4
2018-05-09T03:22:30.705Z,90.1
2018-05-09T03:23:31.420Z,90.3
2018-05-09T03:24:32.257Z,90.4
2018-05-09T03:25:33.235Z,90.4
2018-05-09T03:26:33.949Z,90.4
2018-05-09T03:27:34.668Z,90.0
2018-05-09T03:28:35.412Z,90.0
2018-05-09T03:29:36.138Z,90.4
2018-05-09T03:30:36.856Z,90.0
2018-05-09T03:31:37.574Z,90.4
2018-05-09T03:32:38.290Z,90.0
2018-05-09T03:33:39.015Z,90.2
2018-05-09T03:34:39.750Z,90.4
2018-05-09T03:35:40.467Z,90.3
2018-05-09T03:36:41.183Z,90.4
2018-05-09T03:37:41.922Z,90.1
2018-05-09T03:38:42.686Z,90.4
2018-05-09T03:39:43.404Z,90.3
2018-05-09T03:40:44.138Z,90.3
2018-05-09T03:41:44.870Z,90.4
2018-05-09T03:42:45.591Z,90.3
2018-05-09T03:43:46.402Z,90.1
2018-05-09T03:44:47.123Z,90.4
2018-05-09T03:45:47.850Z,90.1
2018-05-09T03:46:48.577Z,90.0
2018-05-09T03:47:49.321Z,90.0
2018-05-09T03:48:50.285Z,90.3
2018-05-09T03:49:51.004Z,90.0
2018-05-09T03:50:51.729Z,90.2
2018-05-09T03:51:52.452Z,90.4
2018-05-09T03:52:53.285Z,90.4
2018-05-09T03:53:54.031Z,90.4
2018-05-09T03:54:54.740Z,89.8
2018-05-09T03:55:55.479Z,90.2
2018-05-09T03:56:56.198Z,90.1
2018-05-09T03:57:56.924Z,90.3
2018-05-09T03:58:57.642Z,90.2
2018-05-09T03:59:58.419Z,90.4
2018-05-09T04:00:59.148Z,90.5
2018-05-09T04:01:59.863Z,90.1
2018-05-09T04:03:00.837Z,90.2
2018-05-09T04:04:01.567Z,90.1
2018-05-09T04:05:02.297Z,90.3
2018-05-09T04:06:03.075Z,90.3
2018-05-09T04:07:03.814Z,90.4
2018-05-09T04:08:04.748Z,90.4
2018-05-09T04:09:05.462Z,90.7
2018-05-09T04:10:06.185Z,90.3
2018-05-09T04:11:07.216Z,91.0
2018-05-09T04:12:07.946Z,90.8
2018-05-09T04:13:08.946Z,90.1
2018-05-09T04:14:09.635Z,90.8
2018-05-09T04:15:10.370Z,90.9
2018-05-09T04:16:11.093Z,90.8
2018-05-09T04:17:11.808Z,90.6
2018-05-09T04:18:12.644Z,90.6
2018-05-09T04:19:13.373Z,91.0
2018-05-09T04:20:14.098Z,90.8
2018-05-09T04:21:14.869Z,91.0
2018-05-09T04:22:15.635Z,90.7
2018-05-09T04:23:16.361Z,90.1
2018-05-09T04:24:17.084Z,90.3
2018-05-09T04:25:17.829Z,90.1
2018-05-09T04:26:18.567Z,90.1
2018-05-09T04:27:19.291Z,90.4
2018-05-09T04:28:20.121Z,90.2
2018-05-09T04:29:20.845Z,90.0
2018-05-09T04:30:21.575Z,90.8
2018-05-09T04:31:22.297Z,90.9
2018-05-09T04:32:23.032Z,91.1
2018-05-09T04:33:23.761Z,91.3
2018-05-09T04:34:24.746Z,90.4
2018-05-09T04:35:25.464Z,91.0
2018-05-09T04:36:26.185Z,90.8
2018-05-09T04:37:26.920Z,90.7
2018-05-09T04:38:27.651Z,91.0
2018-05-09T04:39:28.369Z,91.4
2018-05-09T04:40:29.104Z,90.4
2018-05-09T04:41:29.833Z,91.0
2018-05-09T04:42:30.557Z,90.4
2018-05-09T04:43:31.282Z,90.7
2018-05-09T04:44:32.031Z,91.2
2018-05-09T04:45:32.756Z,91.3
2018-05-09T04:46:33.478Z,90.6
2018-05-09T04:47:34.515Z,90.6
2018-05-09T04:48:35.256Z,91.1
2018-05-09T04:49:35.985Z,90.9
2018-05-09T04:50:36.702Z,90.7
2018-05-09T04:51:37.421Z,90.4
2018-05-09T04:52:38.199Z,90.3
2018-05-09T04:53:38.903Z,91.3
2018-05-09T04:54:39.631Z,91.4
2018-05-09T04:55:40.472Z,91.0
2018-05-09T04:56:41.098Z,90.6
2018-05-09T04:57:41.974Z,90.9
2018-05-09T04:58:42.696Z,91.9
2018-05-09T04:59:43.433Z,91.3
2018-05-09T05:00:44.153Z,91.2
2018-05-09T05:01:44.880Z,92.0
2018-05-09T05:02:45.763Z,92.0
2018-05-09T05:03:46.484Z,92.1
2018-05-09T05:04:47.215Z,92.0
2018-05-09T05:05:47.940Z,91.0
2018-05-09T05:06:48.687Z,91.0
2018-05-09T05:07:49.464Z,91.3
2018-05-09T05:08:50.201Z,91.2
2018-05-09T05:09:50.934Z,91.2
2018-05-09T05:10:51.662Z,91.9
2018-05-09T05:11:52.456Z,91.3
2018-05-09T05:12:53.117Z,91.6
2018-05-09T05:13:53.844Z,91.8
2018-05-09T05:14:54.630Z,92.1
2018-05-09T05:15:55.354Z,91.2
2018-05-09T05:16:56.085Z,91.1
2018-05-09T05:17:56.811Z,91.2
2018-05-09T05:18:57.786Z,91.4
2018-05-09T05:19:58.770Z,91.2
2018-05-09T05:20:59.504Z,92.0
2018-05-09T05:22:00.239Z,92.0
2018-05-09T05:23:00.984Z,92.0
2018-05-09T05:24:01.714Z,92.0
2018-05-09T05:25:02.479Z,91.9
2018-05-09T05:26:03.229Z,92.2
2018-05-09T05:27:03.998Z,91.8
2018-05-09T05:28:04.690Z,91.6
2018-05-09T05:29:05.424Z,91.1
2018-05-09T05:30:06.209Z,91.0
2018-05-09T05:31:06.936Z,90.7
2018-05-09T05:32:07.921Z,90.3
2018-05-09T05:33:08.652Z,89.8
2018-05-09T05:34:09.385Z,89.9
2018-05-09T05:35:10.233Z,90.0
2018-05-09T05:36:10.964Z,90.0
2018-05-09T05:37:11.685Z,89.5
2018-05-09T05:38:12.436Z,89.2
2018-05-09T05:39:13.173Z,89.1
2018-05-09T05:40:13.914Z,88.6
2018-05-09T05:41:14.636Z,88.8
2018-05-09T05:42:15.457Z,87.7
2018-05-09T05:43:17.019Z,87.9
2018-05-09T05:44:17.973Z,87.5
2018-05-09T05:45:19.044Z,87.0
2018-05-09T05:46:19.695Z,87.1
2018-05-09T05:47:20.570Z,86.7
2018-05-09T05:48:21.303Z,86.1
2018-05-09T05:49:22.173Z,87.1
2018-05-09T05:50:22.908Z,86.4
2018-05-09T05:51:23.777Z,86.0
2018-05-09T05:52:24.501Z,85.9
2018-05-09T05:53:25.392Z,86.2
2018-05-09T05:54:26.522Z,87.1
2018-05-09T05:55:27.260Z,86.9
2018-05-09T05:56:27.989Z,87.5
2018-05-09T05:57:28.740Z,87.1
2018-05-09T05:58:29.461Z,87.1
2018-05-09T05:59:30.956Z,88.0
2018-05-09T06:00:31.690Z,87.9
2018-05-09T06:01:32.424Z,87.5
2018-05-09T06:02:33.177Z,87.8
2018-05-09T06:03:33.941Z,88.1
2018-05-09T06:04:34.727Z,87.7
2018-05-09T06:05:35.462Z,87.6
2018-05-09T06:06:36.192Z,88.2
2018-05-09T06:07:37.176Z,88.6
2018-05-09T06:08:37.906Z,87.5
2018-05-09T06:09:38.638Z,87.2
2018-05-09T06:10:39.358Z,87.2
2018-05-09T06:11:40.089Z,88.6
2018-05-09T06:12:40.813Z,87.9
2018-05-09T06:13:41.542Z,87.1
2018-05-09T06:14:42.277Z,86.9
2018-05-09T06:15:43.008Z,87.1
2018-05-09T06:16:43.748Z,87.7
2018-05-09T06:17:44.483Z,87.8
2018-05-09T06:18:45.209Z,87.7
2018-05-09T06:19:46.283Z,88.5
2018-05-09T06:20:47.012Z,88.3
2018-05-09T06:21:47.749Z,87.9
2018-05-09T06:22:48.555Z,88.1
2018-05-09T06:23:49.227Z,87.4
2018-05-09T06:24:49.930Z,86.9
2018-05-09T06:25:50.686Z,87.0
2018-05-09T06:26:51.403Z,86.3
2018-05-09T06:27:52.134Z,87.0
2018-05-09T06:28:52.857Z,87.2
2018-05-09T06:29:53.591Z,86.5
2018-05-09T06:30:54.391Z,86.3
2018-05-09T06:31:55.046Z,86.4
2018-05-09T06:32:55.777Z,86.6
2018-05-09T06:33:56.510Z,86.0
2018-05-09T06:34:57.488Z,86.1
2018-05-09T06:35:58.213Z,86.4
2018-05-09T06:36:58.945Z,86.5
2018-05-09T06:37:59.695Z,86.5
2018-05-09T06:39:00.421Z,86.8
2018-05-09T06:40:01.228Z,85.2
2018-05-09T06:41:01.956Z,84.4
2018-05-09T06:42:02.972Z,83.6
2018-05-09T06:43:03.700Z,84.8
2018-05-09T06:44:04.945Z,85.4
2018-05-09T06:45:06.327Z,84.5
2018-05-09T06:46:07.633Z,83.9
2018-05-09T06:47:08.349Z,84.0
2018-05-09T06:48:09.094Z,83.9
2018-05-09T06:49:09.828Z,84.7
2018-05-09T06:50:10.561Z,85.3
2018-05-09T06:51:11.289Z,85.6
2018-05-09T06:52:12.036Z,85.5
2018-05-09T06:53:12.764Z,83.4
2018-05-09T06:54:13.500Z,84.3
2018-05-09T06:55:14.229Z,83.1
2018-05-09T06:56:14.957Z,79.9
2018-05-09T06:57:15.768Z,80.0
2018-05-09T06:58:16.434Z,80.4
2018-05-09T06:59:17.883Z,81.0
2018-05-09T07:00:18.613Z,82.3
2018-05-09T07:01:19.338Z,79.7
2018-05-09T07:02:20.072Z,77.6
2018-05-09T07:03:20.796Z,77.6
2018-05-09T07:04:21.531Z,78.1
2018-05-09T07:05:22.252Z,77.2
2018-05-09T07:06:23.193Z,77.4
2018-05-09T07:07:23.800Z,78.9
2018-05-09T07:08:24.589Z,78.6
2018-05-09T07:09:25.343Z,76.4
2018-05-09T07:10:26.057Z,78.8
2018-05-09T07:11:26.796Z,77.5
2018-05-09T07:12:27.533Z,74.9
2018-05-09T07:13:28.404Z,75.0
2018-05-09T07:14:29.400Z,74.1
2018-05-09T07:15:30.383Z,71.8
2018-05-09T07:16:31.130Z,70.5
2018-05-09T07:17:31.861Z,70.5
2018-05-09T07:18:32.597Z,70.0
2018-05-09T07:19:33.324Z,70.1
2018-05-09T07:20:34.065Z,69.6
2018-05-09T07:21:35.293Z,68.0
2018-05-09T07:22:36.021Z,69.3
2018-05-09T07:23:36.809Z,66.9
2018-05-09T07:24:37.572Z,65.7
2018-05-09T07:25:38.301Z,65.9
2018-05-09T07:26:39.075Z,67.6
2018-05-09T07:27:40.450Z,65.2
2018-05-09T07:28:41.920Z,64.0
2018-05-09T07:29:43.071Z,61.8
2018-05-09T07:30:43.819Z,59.6
2018-05-09T07:31:44.568Z,58.8
2018-05-09T07:32:45.284Z,58.4
2018-05-09T07:33:46.333Z,57.4
2018-05-09T07:34:47.426Z,57.8
2018-05-09T07:35:48.170Z,59.5
2018-05-09T07:36:48.899Z,59.6
2018-05-09T07:37:49.885Z,59.0
2018-05-09T07:38:50.608Z,58.6
2018-05-09T07:39:51.344Z,56.5
2018-05-09T07:40:52.081Z,55.2
2018-05-09T07:41:52.803Z,53.7
2018-05-09T07:42:53.544Z,53.1
2018-05-09T07:43:54.277Z,51.8
2018-05-09T07:44:55.005Z,51.0
2018-05-09T07:45:56.057Z,50.8
2018-05-09T07:46:56.788Z,50.3
2018-05-09T07:47:57.594Z,50.1
2018-05-09T07:48:58.261Z,50.1
2018-05-09T07:49:58.990Z,49.5
2018-05-09T07:50:59.718Z,48.1
2018-05-09T07:52:00.549Z,48.5
2018-05-09T07:53:01.275Z,48.5
2018-05-09T07:54:02.025Z,49.0
2018-05-09T07:55:02.749Z,48.4
2018-05-09T07:56:03.490Z,49.8
2018-05-09T07:57:04.220Z,49.0
2018-05-09T07:58:04.961Z,48.2
2018-05-09T07:59:05.697Z,48.2
2018-05-09T08:00:06.434Z,48.4
2018-05-09T08:01:07.179Z,48.8
2018-05-09T08:02:08.028Z,49.0
2018-05-09T08:03:08.762Z,49.0
2018-05-09T08:04:09.507Z,48.5
2018-05-09T08:05:10.499Z,48.2
2018-05-09T08:06:11.228Z,48.9
2018-05-09T08:07:11.973Z,48.7
2018-05-09T08:08:12.703Z,47.8
2018-05-09T08:09:13.428Z,48.4
2018-05-09T08:10:14.171Z,49.4
2018-05-09T08:11:14.914Z,47.1
2018-05-09T08:12:15.648Z,47.9
2018-05-09T08:13:16.383Z,48.4
2018-05-09T08:14:17.167Z,48.6
2018-05-09T08:15:17.901Z,48.9
2018-05-09T08:16:18.638Z,49.1
2018-05-09T08:17:19.369Z,49.3
2018-05-09T08:18:20.111Z,48.3
2018-05-09T08:19:20.887Z,48.1
2018-05-09T08:20:21.636Z,48.8
2018-05-09T08:21:22.368Z,48.6
2018-05-09T08:22:23.110Z,49.0
2018-05-09T08:23:23.838Z,48.3
2018-05-09T08:24:24.628Z,49.0
2018-05-09T08:25:25.363Z,49.5
2018-05-09T08:26:26.487Z,48.7
2018-05-09T08:27:27.218Z,50.3
2018-05-09T08:28:27.953Z,48.6
2018-05-09T08:29:28.687Z,50.4
2018-05-09T08:30:29.473Z,49.9
2018-05-09T08:31:30.428Z,49.7
2018-05-09T08:32:31.161Z,50.3
2018-05-09T08:33:31.891Z,49.2
2018-05-09T08:34:32.647Z,47.7
2018-05-09T08:35:33.565Z,48.0
2018-05-09T08:36:34.490Z,47.9
2018-05-09T08:37:35.196Z,48.2
2018-05-09T08:38:35.920Z,46.6
2018-05-09T08:39:37.326Z,46.7
2018-05-09T08:40:38.350Z,46.8
2018-05-09T08:41:39.644Z,46.8
2018-05-09T08:42:40.378Z,46.9
2018-05-09T08:43:41.182Z,47.9
2018-05-09T08:44:41.853Z,47.3
2018-05-09T08:45:42.595Z,47.6
2018-05-09T08:46:43.328Z,46.3
2018-05-09T08:47:44.316Z,46.4
2018-05-09T08:48:45.066Z,44.9
2018-05-09T08:49:45.802Z,44.1
2018-05-09T08:50:46.537Z,45.1
2018-05-09T08:51:47.541Z,44.5
2018-05-09T08:52:48.269Z,43.6
2018-05-09T08:53:49.107Z,43.9
2018-05-09T08:54:49.842Z,45.2
2018-05-09T08:55:50.579Z,44.1
2018-05-09T08:56:51.307Z,44.0
2018-05-09T08:57:52.058Z,43.2
2018-05-09T08:58:52.929Z,43.6
2018-05-09T08:59:54.081Z,44.1
2018-05-09T09:00:54.811Z,44.9
2018-05-09T09:01:55.820Z,43.0
2018-05-09T09:02:56.553Z,43.0
2018-05-09T09:03:57.339Z,43.0
2018-05-09T09:04:58.075Z,42.6
2018-05-09T09:05:58.810Z,43.0
2018-05-09T09:06:59.559Z,42.2
2018-05-09T09:08:00.300Z,42.2
2018-05-09T09:09:01.737Z,42.2
2018-05-09T09:10:02.490Z,42.3
2018-05-09T09:11:03.486Z,40.1
2018-05-09T09:12:04.905Z,39.9
2018-05-09T09:13:05.632Z,41.0
2018-05-09T09:14:06.370Z,40.8
2018-05-09T09:15:07.132Z,40.4
2018-05-09T09:16:07.873Z,40.9
2018-05-09T09:17:08.611Z,39.6
2018-05-09T09:18:09.337Z,41.3
2018-05-09T09:19:10.083Z,40.8
2018-05-09T09:20:11.604Z,40.0
2018-05-09T09:21:12.968Z,39.8
2018-05-09T09:22:13.790Z,39.7
2018-05-09T09:23:14.529Z,39.3
2018-05-09T09:24:15.527Z,39.1
2018-05-09T09:25:16.257Z,38.2
2018-05-09T09:26:16.984Z,38.3
2018-05-09T09:27:17.732Z,38.4
2018-05-09T09:28:18.875Z,39.3
2018-05-09T09:29:19.654Z,36.7
2018-05-09T09:30:20.349Z,37.1
2018-05-09T09:31:21.077Z,37.1
2018-05-09T09:32:22.069Z,37.2
2018-05-09T09:33:23.038Z,38.5
2018-05-09T09:34:23.788Z,38.3
2018-05-09T09:35:24.518Z,38.5
2018-05-09T09:36:25.253Z,39.1
2018-05-09T09:37:26.000Z,37.4
2018-05-09T09:38:26.731Z,37.3
2018-05-09T09:39:27.468Z,37.9
2018-05-09T09:40:28.267Z,35.9
2018-05-09T09:41:29.026Z,34.4
2018-05-09T09:42:29.734Z,34.8
2018-05-09T09:43:30.465Z,34.0
2018-05-09T09:44:31.231Z,33.1
2018-05-09T09:45:31.952Z,34.2
2018-05-09T09:46:32.699Z,34.5
2018-05-09T09:47:33.429Z,33.9
2018-05-09T09:48:34.437Z,34.5
2018-05-09T09:49:35.312Z,34.8
2018-05-09T09:50:36.052Z,34.3
2018-05-09T09:51:36.778Z,35.4
2018-05-09T09:52:37.517Z,34.5
2018-05-09T09:53:38.287Z,35.1
2018-05-09T09:54:39.178Z,35.3
2018-05-09T09:55:39.918Z,35.9
2018-05-09T09:56:40.650Z,36.6
2018-05-09T09:57:41.391Z,37.0
2018-05-09T09:58:42.121Z,35.9
2018-05-09T09:59:42.883Z,35.0
2018-05-09T10:00:44.063Z,35.1
2018-05-09T10:01:44.795Z,35.8
2018-05-09T10:02:45.537Z,36.3
2018-05-09T10:03:46.282Z,35.8
2018-05-09T10:04:47.029Z,35.2
2018-05-09T10:05:48.217Z,35.5
2018-05-09T10:06:48.956Z,35.2
2018-05-09T10:07:49.951Z,34.6
2018-05-09T10:08:50.686Z,32.8
2018-05-09T10:09:51.425Z,34.3
2018-05-09T10:10:52.415Z,34.4
2018-05-09T10:11:53.162Z,33.0
2018-05-09T10:12:54.150Z,31.6
2018-05-09T10:13:54.883Z,32.9
2018-05-09T10:14:55.644Z,33.9
2018-05-09T10:15:56.499Z,34.6
2018-05-09T10:16:57.199Z,34.6
2018-05-09T10:17:57.946Z,33.3
2018-05-09T10:18:58.689Z,32.8
2018-05-09T10:19:59.439Z,34.1
2018-05-09T10:21:00.174Z,34.4
2018-05-09T10:22:00.911Z,34.4
2018-05-09T10:23:01.665Z,35.4
2018-05-09T10:24:02.394Z,34.6
2018-05-09T10:25:03.139Z,31.1
2018-05-09T10:26:03.866Z,31.4
2018-05-09T10:27:04.611Z,31.8
2018-05-09T10:28:05.352Z,31.9
2018-05-09T10:29:06.140Z,31.6
2018-05-09T10:30:06.876Z,31.5
2018-05-09T10:31:07.622Z,32.0
2018-05-09T10:32:08.351Z,31.1
2018-05-09T10:33:09.099Z,30.6
2018-05-09T10:34:09.832Z,30.9
2018-05-09T10:35:10.571Z,29.6
2018-05-09T10:36:11.364Z,28.1
2018-05-09T10:37:12.103Z,28.0
2018-05-09T10:38:12.845Z,27.2
2018-05-09T10:39:13.588Z,27.4
2018-05-09T10:40:14.330Z,27.5
2018-05-09T10:41:15.324Z,28.8
2018-05-09T10:42:16.067Z,28.5
2018-05-09T10:43:16.819Z,29.3
2018-05-09T10:44:17.557Z,29.5
2018-05-09T10:45:18.545Z,29.6
2018-05-09T10:46:19.288Z,30.8
2018-05-09T10:47:20.382Z,31.4
2018-05-09T10:48:21.377Z,30.3
2018-05-09T10:49:22.125Z,30.9
2018-05-09T10:50:22.875Z,30.4
2018-05-09T10:51:23.613Z,29.5
2018-05-09T10:52:24.352Z,30.5
2018-05-09T10:53:25.333Z,30.6
2018-05-09T10:54:26.078Z,31.6
2018-05-09T10:55:26.821Z,31.5
2018-05-09T10:56:27.580Z,32.0
2018-05-09T10:57:28.349Z,31.1
2018-05-09T10:58:29.088Z,31.7
2018-05-09T10:59:29.824Z,31.3
2018-05-09T11:00:30.573Z,30.8
2018-05-09T11:01:31.308Z,30.6
2018-05-09T11:02:32.044Z,29.9
2018-05-09T11:03:32.773Z,31.7
2018-05-09T11:04:33.663Z,30.5
2018-05-09T11:05:34.405Z,30.5
2018-05-09T11:06:35.155Z,30.2
2018-05-09T11:07:36.155Z,30.5
2018-05-09T11:08:36.878Z,29.8
2018-05-09T11:09:37.621Z,29.9
2018-05-09T11:10:38.409Z,30.3
2018-05-09T11:11:39.105Z,29.0
2018-05-09T11:12:39.841Z,29.6
2018-05-09T11:13:40.579Z,28.6
2018-05-09T11:14:41.316Z,29.7
2018-05-09T11:15:42.069Z,29.5
2018-05-09T11:16:42.806Z,30.6
2018-05-09T11:17:43.553Z,30.3
2018-05-09T11:18:44.299Z,29.7
2018-05-09T11:19:45.043Z,30.1
2018-05-09T11:20:45.789Z,30.3
2018-05-09T11:21:47.179Z,28.8
2018-05-09T11:22:47.908Z,29.1
2018-05-09T11:23:48.685Z,29.6
2018-05-09T11:24:49.423Z,28.6
2018-05-09T11:25:50.177Z,29.1
2018-05-09T11:26:50.908Z,29.5
2018-05-09T11:27:51.698Z,29.6
2018-05-09T11:28:52.424Z,29.5
2018-05-09T11:29:53.170Z,29.2
2018-05-09T11:30:53.942Z,28.0
2018-05-09T11:31:54.686Z,28.1
2018-05-09T11:32:55.563Z,28.5
2018-05-09T11:33:56.296Z,28.6
2018-05-09T11:34:57.044Z,28.5
2018-05-09T11:35:57.786Z,28.9
2018-05-09T11:36:58.779Z,28.7
2018-05-09T11:37:59.562Z,28.6
2018-05-09T11:39:01.527Z,27.6
2018-05-09T11:40:02.726Z,26.5
2018-05-09T11:41:04.391Z,27.2
2018-05-09T11:42:05.306Z,27.5
2018-05-09T11:43:06.052Z,28.7
2018-05-09T11:44:06.791Z,28.2
2018-05-09T11:45:07.588Z,28.2
2018-05-09T11:46:08.458Z,27.6
2018-05-09T11:47:09.192Z,27.4
2018-05-09T11:48:09.935Z,27.5
2018-05-09T11:49:10.680Z,27.5
2018-05-09T11:50:11.512Z,27.6
2018-05-09T11:51:12.245Z,28.2
2018-05-09T11:52:12.988Z,27.7
2018-05-09T11:53:13.765Z,26.7
2018-05-09T11:54:14.495Z,27.8
2018-05-09T11:55:15.230Z,27.1
2018-05-09T11:56:16.242Z,25.1
2018-05-09T11:57:16.977Z,25.2
2018-05-09T11:58:17.961Z,24.7
2018-05-09T11:59:18.705Z,25.4
2018-05-09T12:00:19.446Z,25.6
2018-05-09T12:01:20.462Z,26.4
2018-05-09T12:02:21.274Z,25.2
2018-05-09T12:03:21.920Z,25.6
2018-05-09T12:04:22.667Z,25.1
2018-05-09T12:05:23.661Z,25.6
2018-05-09T12:06:24.403Z,24.4
2018-05-09T12:07:26.932Z,25.3
2018-05-09T12:08:27.852Z,26.2
2018-05-09T12:09:28.887Z,26.7
2018-05-09T12:10:29.905Z,26.3
2018-05-09T12:11:30.843Z,26.4
2018-05-09T12:12:31.864Z,26.7
2018-05-09T12:13:32.893Z,26.3
2018-05-09T12:14:33.913Z,26.4
2018-05-09T12:15:34.994Z,27.5
2018-05-09T12:16:36.033Z,27.4
2018-05-09T12:17:37.502Z,27.6
2018-05-09T12:18:38.971Z,27.2
2018-05-09T12:19:40.837Z,26.4
2018-05-09T12:20:42.410Z,27.0
2018-05-09T12:21:43.696Z,27.4
2018-05-09T12:22:44.742Z,28.0
2018-05-09T12:23:45.919Z,28.5
2018-05-09T12:24:46.952Z,27.7
2018-05-09T12:25:47.851Z,28.7
2018-05-09T12:26:48.745Z,27.4
2018-05-09T12:27:49.953Z,26.3
2018-05-09T12:28:50.886Z,27.6
2018-05-09T12:29:52.598Z,26.2
2018-05-09T12:30:53.688Z,27.6
2018-05-09T12:31:54.988Z,28.0
2018-05-09T12:32:56.109Z,27.7
2018-05-09T12:33:56.931Z,28.7
2018-05-09T12:34:58.121Z,28.6
2018-05-09T12:36:00.418Z,28.4
2018-05-09T12:37:01.561Z,28.3
2018-05-09T12:38:02.380Z,28.3
2018-05-09T12:39:03.476Z,28.4
2018-05-09T12:40:04.296Z,28.5
2018-05-09T12:41:05.453Z,29.3
2018-05-09T12:42:06.913Z,30.8
2018-05-09T12:43:07.731Z,29.4
2018-05-09T12:44:08.457Z,28.8
2018-05-09T12:45:09.546Z,29.3
2018-05-09T12:46:10.838Z,29.7
2018-05-09T12:47:11.861Z,29.4
2018-05-09T12:48:12.968Z,28.9
2018-05-09T12:49:13.983Z,28.4
2018-05-09T12:50:15.035Z,28.7
2018-05-09T12:51:16.875Z,28.6
2018-05-09T12:52:18.121Z,29.2
2018-05-09T12:53:18.951Z,31.3
2018-05-09T12:54:20.540Z,31.7
2018-05-09T12:55:22.023Z,31.3
2018-05-09T12:56:24.297Z,31.6
2018-05-09T12:57:25.861Z,31.4
2018-05-09T12:58:26.907Z,31.2
2018-05-09T12:59:27.907Z,30.4
2018-05-09T13:00:28.983Z,29.9
2018-05-09T13:01:29.843Z,29.9
2018-05-09T13:02:31.263Z,29.0
2018-05-09T13:03:32.487Z,29.1
2018-05-09T13:04:33.416Z,28.5
2018-05-09T13:05:34.918Z,28.8
2018-05-09T13:06:36.085Z,28.4
2018-05-09T13:07:36.814Z,28.7
2018-05-09T13:08:38.161Z,30.0
2018-05-09T13:09:39.077Z,30.2
2018-05-09T13:10:40.130Z,30.9
2018-05-09T13:11:41.381Z,31.6
2018-05-09T13:12:42.334Z,30.9
2018-05-09T13:13:43.398Z,31.3
2018-05-09T13:14:44.666Z,30.9
2018-05-09T13:15:46.024Z,31.2
2018-05-09T13:16:46.949Z,31.6
2018-05-09T13:17:48.067Z,30.8
2018-05-09T13:18:49.014Z,31.2
2018-05-09T13:19:49.894Z,31.6
2018-05-09T13:20:51.028Z,31.8
2018-05-09T13:21:52.346Z,32.9
2018-05-09T13:22:53.723Z,32.8
2018-05-09T13:23:54.806Z,33.1
2018-05-09T13:24:56.814Z,33.7
2018-05-09T13:25:59.168Z,34.2
2018-05-09T13:27:00.857Z,34.8
2018-05-09T13:28:02.806Z,34.6
2018-05-09T13:29:03.804Z,33.0
2018-05-09T13:30:04.873Z,32.7